createdAt,value
2022-12-18T00:00:11.048Z,-5.16
2022-12-18T00:03:00.800Z,-5.39
2022-12-18T00:05:51.121Z,-5.41
2022-12-18T00:08:37.768Z,-5.49
2022-12-18T00:11:28.250Z,-5.51
2022-12-18T00:14:15.833Z,-5.50
2022-12-18T00:17:02.804Z,-5.42
2022-12-18T00:19:49.420Z,-5.58
2022-12-18T00:22:36.201Z,-5.65
2022-12-18T00:25:23.008Z,-5.51
2022-12-18T00:28:11.736Z,-5.64
2022-12-18T00:31:03.146Z,-5.49
2022-12-18T00:33:53.845Z,-5.88
2022-12-18T00:36:43.433Z,-5.72
2022-12-18T00:39:30.041Z,-5.55
2022-12-18T00:42:34.459Z,-5.51
2022-12-18T00:45:22.797Z,-5.46
2022-12-18T00:48:09.677Z,-5.46
2022-12-18T00:50:56.519Z,-5.51
2022-12-18T00:53:43.145Z,-5.52
2022-12-18T00:56:30.205Z,-5.66
2022-12-18T00:59:17.239Z,-5.67
2022-12-18T01:02:05.266Z,-5.67
2022-12-18T01:04:52.334Z,-5.83
2022-12-18T01:07:40.343Z,-5.64
2022-12-18T01:10:27.438Z,-5.71
2022-12-18T01:13:17.817Z,-5.49
2022-12-18T01:16:04.751Z,-5.60
2022-12-18T01:18:55.899Z,-5.50
2022-12-18T01:21:42.661Z,-5.42
2022-12-18T01:24:29.422Z,-5.64
2022-12-18T01:27:16.234Z,-5.59
2022-12-18T01:30:03.046Z,-5.70
2022-12-18T01:32:49.954Z,-5.58
2022-12-18T01:35:43.901Z,-5.69
2022-12-18T01:38:31.093Z,-5.76
2022-12-18T01:41:19.778Z,-5.96
2022-12-18T01:44:39.382Z,-5.89
2022-12-18T01:47:30.580Z,-5.81
2022-12-18T01:50:20.133Z,-5.78
2022-12-18T01:53:13.474Z,-5.85
2022-12-18T01:56:01.299Z,-5.83
2022-12-18T01:58:57.219Z,-5.91
2022-12-18T02:01:44.370Z,-6.07
2022-12-18T02:04:31.553Z,-5.95
2022-12-18T02:07:25.739Z,-6.08
2022-12-18T02:10:19.620Z,-6.08
2022-12-18T02:13:13.134Z,-5.94
2022-12-18T02:16:08.316Z,-5.93
2022-12-18T02:18:59.869Z,-6.14
2022-12-18T02:21:55.754Z,-6.14
2022-12-18T02:24:51.245Z,-6.11
2022-12-18T02:27:41.498Z,-5.73
2022-12-18T02:30:32.306Z,-5.78
2022-12-18T02:33:22.025Z,-5.72
2022-12-18T02:36:10.139Z,-5.88
2022-12-18T02:38:58.712Z,-5.84
2022-12-18T02:41:46.389Z,-5.67
2022-12-18T02:44:35.733Z,-5.85
2022-12-18T02:47:28.133Z,-5.71
2022-12-18T02:50:25.165Z,-5.60
2022-12-18T02:53:23.162Z,-5.48
2022-12-18T02:56:14.910Z,-5.60
2022-12-18T02:59:06.792Z,-5.56
2022-12-18T03:02:20.192Z,-5.79
2022-12-18T03:05:13.862Z,-5.77
2022-12-18T03:08:05.806Z,-5.71
2022-12-18T03:10:59.849Z,-5.63
2022-12-18T03:13:53.666Z,-5.85
2022-12-18T03:16:43.296Z,-5.97
2022-12-18T03:19:35.382Z,-6.10
2022-12-18T03:22:25.675Z,-5.90
2022-12-18T03:25:16.140Z,-5.95
2022-12-18T03:28:05.518Z,-6.03
2022-12-18T03:31:01.970Z,-5.94
2022-12-18T03:33:55.067Z,-5.92
2022-12-18T03:36:51.059Z,-5.85
2022-12-18T03:39:39.402Z,-5.87
2022-12-18T03:42:31.205Z,-6.00
2022-12-18T03:45:33.613Z,-6.04
2022-12-18T03:48:29.156Z,-6.01
2022-12-18T03:51:25.645Z,-6.06
2022-12-18T03:54:15.314Z,-6.17
2022-12-18T03:57:16.563Z,-6.25
2022-12-18T04:00:07.146Z,-6.32
2022-12-18T04:03:03.646Z,-6.24
2022-12-18T04:05:59.301Z,-6.42
2022-12-18T04:08:48.872Z,-6.44
2022-12-18T04:11:42.285Z,-6.61
2022-12-18T04:14:29.514Z,-6.36
2022-12-18T04:17:17.512Z,-6.39
2022-12-18T04:20:05.184Z,-6.22
2022-12-18T04:22:52.006Z,-6.14
2022-12-18T04:25:39.913Z,-6.22
2022-12-18T04:28:32.776Z,-6.18
2022-12-18T04:31:19.638Z,-6.21
2022-12-18T04:34:07.364Z,-6.13
2022-12-18T04:37:01.246Z,-6.17
2022-12-18T04:39:48.380Z,-6.14
2022-12-18T04:42:42.401Z,-6.32
2022-12-18T04:45:30.450Z,-6.32
2022-12-18T04:48:17.283Z,-6.24
2022-12-18T04:51:04.771Z,-6.41
2022-12-18T04:53:51.441Z,-6.40
2022-12-18T04:56:38.311Z,-6.40
2022-12-18T04:59:25.016Z,-6.28
2022-12-18T05:02:13.452Z,-6.50
2022-12-18T05:05:00.420Z,-6.45
2022-12-18T05:07:47.254Z,-6.28
2022-12-18T05:10:38.053Z,-6.20
2022-12-18T05:13:24.822Z,-6.33
2022-12-18T05:16:12.265Z,-6.61
2022-12-18T05:19:00.547Z,-6.61
2022-12-18T05:21:49.069Z,-6.71
2022-12-18T05:24:35.669Z,-6.72
2022-12-18T05:27:22.591Z,-6.85
2022-12-18T05:30:10.674Z,-6.71
2022-12-18T05:32:57.193Z,-6.63
2022-12-18T05:35:45.529Z,-6.77
2022-12-18T05:38:33.685Z,-6.67
2022-12-18T05:41:20.071Z,-6.62
2022-12-18T05:44:06.916Z,-6.77
2022-12-18T05:46:53.752Z,-6.74
2022-12-18T05:49:40.596Z,-6.88
2022-12-18T05:52:28.838Z,-6.86
2022-12-18T05:55:15.662Z,-6.83
2022-12-18T05:58:02.830Z,-6.80
2022-12-18T06:00:49.272Z,-6.90
2022-12-18T06:03:36.066Z,-6.98
2022-12-18T06:06:25.270Z,-6.92
2022-12-18T06:09:13.225Z,-6.56
2022-12-18T06:12:00.113Z,-6.59
2022-12-18T06:14:47.105Z,-6.64
2022-12-18T06:17:34.896Z,-6.59
2022-12-18T06:20:21.322Z,-6.64
2022-12-18T06:23:08.451Z,-6.67
2022-12-18T06:25:57.109Z,-6.58
2022-12-18T06:28:44.108Z,-7.09
2022-12-18T06:31:30.617Z,-6.58
2022-12-18T06:34:17.332Z,-6.72
2022-12-18T06:37:04.169Z,-6.77
2022-12-18T06:39:51.035Z,-6.76
2022-12-18T06:42:39.371Z,-6.73
2022-12-18T06:45:26.297Z,-6.84
2022-12-18T06:48:12.775Z,-6.66
2022-12-18T06:51:00.133Z,-6.91
2022-12-18T06:53:47.056Z,-6.75
2022-12-18T06:56:34.015Z,-6.99
2022-12-18T06:59:22.061Z,-6.76
2022-12-18T07:02:08.747Z,-6.78
2022-12-18T07:04:55.466Z,-6.79
2022-12-18T07:07:42.391Z,-6.68
2022-12-18T07:10:29.264Z,-6.65
2022-12-18T07:13:16.047Z,-6.66
2022-12-18T07:16:15.984Z,-6.69
2022-12-18T07:19:05.556Z,-6.75
2022-12-18T07:21:52.468Z,-6.62
2022-12-18T07:24:39.389Z,-6.68
2022-12-18T07:27:26.222Z,-6.68
2022-12-18T07:30:13.821Z,-6.72
2022-12-18T07:33:01.745Z,-6.85
2022-12-18T07:35:48.220Z,-6.75
2022-12-18T07:38:37.186Z,-6.74
2022-12-18T07:41:24.257Z,-6.82
2022-12-18T07:44:11.961Z,-6.59
2022-12-18T07:46:58.627Z,-6.57
2022-12-18T07:49:46.995Z,-6.57
2022-12-18T07:52:33.683Z,-6.48
2022-12-18T07:55:21.088Z,-6.54
2022-12-18T07:58:07.875Z,-6.52
2022-12-18T08:00:55.121Z,-6.57
2022-12-18T08:03:43.310Z,-6.72
2022-12-18T08:06:31.280Z,-6.64
2022-12-18T08:09:18.376Z,-6.65
2022-12-18T08:12:05.065Z,-6.49
2022-12-18T08:14:51.907Z,-6.54
2022-12-18T08:17:39.058Z,-6.58
2022-12-18T08:20:25.821Z,-6.62
2022-12-18T08:23:13.551Z,-6.46
2022-12-18T08:26:00.743Z,-6.39
2022-12-18T08:28:47.353Z,-6.38
2022-12-18T08:31:35.373Z,-6.46
2022-12-18T08:34:22.066Z,-6.40
2022-12-18T08:37:09.004Z,-6.27
2022-12-18T08:39:57.122Z,-6.25
2022-12-18T08:43:01.309Z,-6.41
2022-12-18T08:45:48.302Z,-6.45
2022-12-18T08:48:35.132Z,-6.38
2022-12-18T08:51:22.539Z,-6.23
2022-12-18T08:54:09.832Z,-6.29
2022-12-18T08:56:58.155Z,-6.19
2022-12-18T08:59:44.707Z,-6.17
2022-12-18T09:02:31.560Z,-6.07
2022-12-18T09:05:18.318Z,-5.99
2022-12-18T09:08:05.104Z,-5.90
2022-12-18T09:10:52.941Z,-5.72
2022-12-18T09:13:41.407Z,-5.73
2022-12-18T09:16:32.408Z,-5.86
2022-12-18T09:19:19.837Z,-5.80
2022-12-18T09:22:06.644Z,-5.84
2022-12-18T09:24:53.560Z,-5.84
2022-12-18T09:27:40.547Z,-5.81
2022-12-18T09:30:28.813Z,-5.83
2022-12-18T09:33:15.830Z,-5.75
2022-12-18T09:36:04.410Z,-5.72
2022-12-18T09:38:50.925Z,-5.69
2022-12-18T09:41:45.272Z,-5.75
2022-12-18T09:44:36.844Z,-5.66
2022-12-18T09:47:35.108Z,-5.44
2022-12-18T09:50:29.709Z,-5.37
2022-12-18T09:53:21.729Z,-5.48
2022-12-18T09:56:16.972Z,-5.44
2022-12-18T09:59:05.861Z,-5.41
2022-12-18T10:01:52.955Z,-5.43
2022-12-18T10:04:41.387Z,-5.38
2022-12-18T10:07:37.131Z,-5.55
2022-12-18T10:10:33.584Z,-5.67
2022-12-18T10:13:27.376Z,-5.38
2022-12-18T10:16:18.388Z,-5.52
2022-12-18T10:19:31.200Z,-5.40
2022-12-18T10:22:29.905Z,-5.41
2022-12-18T10:25:23.897Z,-5.36
2022-12-18T10:28:15.002Z,-5.25
2022-12-18T10:31:01.714Z,-5.10
2022-12-18T10:33:48.771Z,-5.05
2022-12-18T10:36:35.324Z,-4.96
2022-12-18T10:39:27.373Z,-4.85
2022-12-18T10:42:19.298Z,-4.84
2022-12-18T10:45:11.914Z,-4.75
2022-12-18T10:47:59.174Z,-4.67
2022-12-18T10:53:59.181Z,-4.83
2022-12-18T10:56:47.874Z,-4.82
2022-12-18T10:59:53.178Z,-4.78
2022-12-18T11:02:40.892Z,-4.80
2022-12-18T11:05:32.515Z,-5.73
2022-12-18T11:08:24.428Z,-5.01
2022-12-18T11:11:21.444Z,-4.53
2022-12-18T11:14:20.905Z,-4.60
2022-12-18T11:17:25.353Z,-4.56
2022-12-18T11:20:25.907Z,-4.56
2022-12-18T11:23:15.553Z,-4.34
2022-12-18T11:26:04.978Z,-4.39
2022-12-18T11:28:53.691Z,-4.26
2022-12-18T11:31:41.785Z,-4.22
2022-12-18T11:34:32.509Z,-4.19
2022-12-18T11:37:20.384Z,-4.19
2022-12-18T11:40:14.607Z,-4.16
2022-12-18T11:43:09.010Z,-4.15
2022-12-18T11:45:58.950Z,-4.11
2022-12-18T11:48:52.124Z,-4.00
2022-12-18T11:51:47.533Z,-4.10
2022-12-18T11:54:34.158Z,-4.26
2022-12-18T11:57:35.236Z,-4.08
2022-12-18T12:00:23.146Z,-4.13
2022-12-18T12:03:24.565Z,-4.06
2022-12-18T12:06:24.054Z,-4.05
2022-12-18T12:09:20.871Z,-4.16
2022-12-18T12:12:26.032Z,-4.18
2022-12-18T12:15:25.117Z,-4.06
2022-12-18T12:18:29.997Z,-4.01
2022-12-18T12:21:38.977Z,-3.89
2022-12-18T12:28:40.911Z,-4.06
2022-12-18T12:32:14.241Z,-4.03
2022-12-18T12:35:30.239Z,-3.95
2022-12-18T12:38:53.211Z,-4.04
2022-12-18T12:42:07.295Z,-4.05
2022-12-18T12:45:06.478Z,-3.97
2022-12-18T12:48:10.130Z,-3.81
2022-12-18T12:51:12.173Z,-3.96
2022-12-18T12:54:28.895Z,-3.99
2022-12-18T12:57:36.937Z,-3.90
2022-12-18T13:00:43.795Z,-3.82
2022-12-18T13:03:53.156Z,-3.95
2022-12-18T13:07:04.064Z,-3.94
2022-12-18T13:10:46.070Z,-3.88
2022-12-18T13:13:56.672Z,-3.89
2022-12-18T13:16:59.960Z,-3.98
2022-12-18T13:19:56.301Z,-4.15
2022-12-18T13:22:54.690Z,-4.03
2022-12-18T13:25:50.384Z,-4.21
2022-12-18T13:29:08.571Z,-4.20
2022-12-18T13:32:29.502Z,-4.22
2022-12-18T13:35:47.066Z,-4.08
2022-12-18T13:38:43.138Z,-4.15
2022-12-18T13:41:42.615Z,-4.16
2022-12-18T13:44:44.314Z,-4.98
2022-12-18T13:47:41.572Z,-4.13
2022-12-18T13:50:36.263Z,-4.08
2022-12-18T13:53:32.914Z,-4.01
2022-12-18T13:56:31.895Z,-4.07
2022-12-18T13:59:36.352Z,-4.12
2022-12-18T14:02:46.654Z,-4.44
2022-12-18T14:05:40.402Z,-4.02
2022-12-18T14:08:39.565Z,-4.19
2022-12-18T14:11:34.535Z,-4.35
2022-12-18T14:14:33.563Z,-4.36
2022-12-18T14:17:29.939Z,-4.33
2022-12-18T14:20:36.156Z,-4.31
2022-12-18T14:23:41.493Z,-4.38
2022-12-18T14:26:41.040Z,-4.47
2022-12-18T14:29:33.722Z,-4.44
2022-12-18T14:32:40.747Z,-4.43
2022-12-18T14:35:41.294Z,-4.42
2022-12-18T14:38:41.333Z,-4.48
2022-12-18T14:41:31.575Z,-4.39
2022-12-18T14:44:44.266Z,-4.36
2022-12-18T14:47:46.797Z,-4.38
2022-12-18T14:50:41.667Z,-4.47
2022-12-18T14:53:37.348Z,-4.43
2022-12-18T14:56:27.996Z,-4.41
2022-12-18T14:59:23.781Z,-4.34
2022-12-18T15:02:21.692Z,-4.36
2022-12-18T15:05:21.159Z,-4.39
2022-12-18T15:08:38.954Z,-4.52
2022-12-18T15:11:39.084Z,-4.36
2022-12-18T15:14:42.698Z,-4.38
2022-12-18T15:17:30.768Z,-4.28
2022-12-18T15:20:19.279Z,-4.40
2022-12-18T15:23:06.897Z,-4.29
2022-12-18T15:26:02.875Z,-4.29
2022-12-18T15:28:52.527Z,-4.29
2022-12-18T15:31:41.623Z,-4.30
2022-12-18T15:34:32.710Z,-4.38
2022-12-18T15:37:25.198Z,-4.37
2022-12-18T15:40:28.098Z,-4.25
2022-12-18T15:43:39.576Z,-4.46
2022-12-18T15:46:28.782Z,-4.30
2022-12-18T15:49:17.374Z,-4.36
2022-12-18T15:52:08.508Z,-4.34
2022-12-18T15:55:20.923Z,-4.42
2022-12-18T15:58:12.254Z,-4.39
2022-12-18T16:01:03.082Z,-4.50
2022-12-18T16:03:51.301Z,-5.46
2022-12-18T16:07:05.239Z,-4.60
2022-12-18T16:09:51.622Z,-4.52
2022-12-18T16:12:39.543Z,-4.59
2022-12-18T16:15:27.675Z,-4.62
2022-12-18T16:18:16.212Z,-4.75
2022-12-18T16:21:03.803Z,-4.70
2022-12-18T16:23:52.488Z,-4.71
2022-12-18T16:26:43.515Z,-4.78
2022-12-18T16:29:32.011Z,-4.70
2022-12-18T16:32:21.993Z,-4.73
2022-12-18T16:35:14.893Z,-4.70
2022-12-18T16:38:02.314Z,-4.66
2022-12-18T16:41:03.396Z,-4.81
2022-12-18T16:43:54.885Z,-4.58
2022-12-18T16:46:44.052Z,-4.63
2022-12-18T16:49:31.068Z,-4.44
2022-12-18T16:52:19.035Z,-4.40
2022-12-18T16:55:06.708Z,-4.50
2022-12-18T16:57:53.493Z,-4.47
2022-12-18T17:00:50.601Z,-4.41
2022-12-18T17:03:41.555Z,-4.54
2022-12-18T17:06:34.289Z,-4.48
2022-12-18T17:09:25.127Z,-4.69
2022-12-18T17:12:12.037Z,-4.40
2022-12-18T17:15:05.672Z,-4.37
2022-12-18T17:17:55.958Z,-4.35
2022-12-18T17:20:43.954Z,-4.31
2022-12-18T17:23:31.313Z,-4.91
2022-12-18T17:26:19.617Z,-4.49
2022-12-18T17:29:06.706Z,-4.31
2022-12-18T17:31:53.542Z,-4.33
2022-12-18T17:34:42.251Z,-4.48
2022-12-18T17:37:28.960Z,-4.41
2022-12-18T17:40:15.927Z,-4.31
2022-12-18T17:43:04.990Z,-4.39
2022-12-18T17:45:51.844Z,-4.39
2022-12-18T17:48:38.634Z,-4.35
2022-12-18T17:51:26.661Z,-4.52
2022-12-18T17:54:13.683Z,-4.53
2022-12-18T17:57:00.534Z,-4.55
2022-12-18T17:59:48.659Z,-4.49
2022-12-18T18:02:35.662Z,-4.53
2022-12-18T18:05:22.566Z,-4.59
2022-12-18T18:08:10.076Z,-4.63
2022-12-18T18:11:17.249Z,-4.69
2022-12-18T18:14:05.262Z,-4.72
2022-12-18T18:16:53.564Z,-4.88
2022-12-18T18:19:43.098Z,-4.98
2022-12-18T18:22:31.976Z,-4.86
2022-12-18T18:25:18.895Z,-4.93
2022-12-18T18:28:06.588Z,-4.99
2022-12-18T18:30:53.242Z,-5.04
2022-12-18T18:33:41.725Z,-4.98
2022-12-18T18:36:28.770Z,-5.17
2022-12-18T18:39:18.572Z,-5.32
2022-12-18T18:42:06.612Z,-5.34
2022-12-18T18:44:53.282Z,-5.34
2022-12-18T18:47:41.122Z,-5.37
2022-12-18T18:50:29.238Z,-5.38
2022-12-18T18:53:16.085Z,-5.34
2022-12-18T18:56:34.788Z,-5.35
2022-12-18T18:59:10.464Z,-5.43
2022-12-18T19:01:58.327Z,-5.42
2022-12-18T19:04:46.841Z,-5.56
2022-12-18T19:07:37.070Z,-5.56
2022-12-18T19:10:24.579Z,-5.45
2022-12-18T19:13:21.869Z,-5.43
2022-12-18T19:16:11.257Z,-5.49
2022-12-18T19:19:02.247Z,-5.36
2022-12-18T19:21:50.569Z,-5.52
2022-12-18T19:24:39.870Z,-5.50
2022-12-18T19:27:27.930Z,-5.48
2022-12-18T19:30:16.004Z,-5.45
2022-12-18T19:33:20.001Z,-5.46
2022-12-18T19:36:17.098Z,-5.36
2022-12-18T19:39:09.139Z,-5.40
2022-12-18T19:41:59.952Z,-5.47
2022-12-18T19:44:48.009Z,-5.54
2022-12-18T19:47:36.292Z,-5.62
2022-12-18T19:50:24.578Z,-5.57
2022-12-18T19:53:12.572Z,-5.93
2022-12-18T19:56:00.008Z,-5.55
2022-12-18T19:58:49.664Z,-5.67
2022-12-18T20:01:37.629Z,-5.57
2022-12-18T20:04:25.392Z,-5.70
2022-12-18T20:07:13.621Z,-5.75
2022-12-18T20:10:08.415Z,-5.57
2022-12-18T20:13:00.397Z,-5.58
2022-12-18T20:15:49.676Z,-5.52
2022-12-18T20:18:36.522Z,-5.42
2022-12-18T20:21:25.385Z,-5.53
2022-12-18T20:24:12.452Z,-5.74
2022-12-18T20:26:59.283Z,-5.54
2022-12-18T20:29:46.099Z,-5.50
2022-12-18T20:32:37.250Z,-5.49
2022-12-18T20:35:23.947Z,-5.55
2022-12-18T20:38:11.086Z,-5.51
2022-12-18T20:40:59.513Z,-5.72
2022-12-18T20:43:47.289Z,-5.52
2022-12-18T20:46:34.317Z,-5.55
2022-12-18T20:49:22.654Z,-5.54
2022-12-18T20:52:09.421Z,-5.55
2022-12-18T20:54:56.319Z,-5.51
2022-12-18T20:57:45.391Z,-5.46
2022-12-18T21:00:32.020Z,-5.40
2022-12-18T21:03:19.139Z,-5.45
2022-12-18T21:06:07.785Z,-5.60
2022-12-18T21:08:54.684Z,-5.57
2022-12-18T21:11:59.220Z,-5.44
2022-12-18T21:14:46.482Z,-5.21
2022-12-18T21:17:37.421Z,-5.18
2022-12-18T21:20:31.221Z,-5.26
2022-12-18T21:23:19.757Z,-5.36
2022-12-18T21:26:17.562Z,-5.22
2022-12-18T21:29:06.991Z,-5.19
2022-12-18T21:31:55.332Z,-5.26
2022-12-18T21:34:47.638Z,-5.45
2022-12-18T21:37:36.097Z,-5.17
2022-12-18T21:40:25.048Z,-5.20
2022-12-18T21:43:29.643Z,-5.19
2022-12-18T21:46:16.441Z,-5.11
2022-12-18T21:49:04.578Z,-5.02
2022-12-18T21:51:52.289Z,-5.08
2022-12-18T21:54:40.561Z,-4.98
2022-12-18T21:57:29.731Z,-5.00
2022-12-18T22:00:19.644Z,-4.99
2022-12-18T22:03:18.165Z,-5.03
2022-12-18T22:06:09.258Z,-4.97
2022-12-18T22:08:57.422Z,-4.95
2022-12-18T22:11:47.671Z,-4.96
2022-12-18T22:14:35.824Z,-4.96
2022-12-18T22:17:24.904Z,-4.99
2022-12-18T22:20:16.192Z,-4.98
2022-12-18T22:23:05.978Z,-4.89
2022-12-18T22:25:53.179Z,-4.93
2022-12-18T22:29:02.168Z,-4.88
2022-12-18T22:32:12.680Z,-4.88
2022-12-18T22:35:09.165Z,-4.86
2022-12-18T22:38:00.247Z,-4.87
2022-12-18T22:40:46.609Z,-4.97
2022-12-18T22:43:33.527Z,-4.91
2022-12-18T22:46:20.981Z,-4.92
2022-12-18T22:49:13.555Z,-4.87
2022-12-18T22:52:00.004Z,-5.01
2022-12-18T22:54:47.210Z,-4.89
2022-12-18T22:57:34.139Z,-4.91
2022-12-18T23:00:24.658Z,-4.96
2022-12-18T23:03:12.329Z,-4.95
2022-12-18T23:06:05.687Z,-4.99
2022-12-18T23:08:56.011Z,-4.95
2022-12-18T23:11:43.112Z,-4.95
2022-12-18T23:14:30.308Z,-4.94
2022-12-18T23:17:17.118Z,-4.91
2022-12-18T23:20:03.911Z,-4.89
2022-12-18T23:23:01.005Z,-4.84
2022-12-18T23:25:47.578Z,-4.89
2022-12-18T23:28:36.455Z,-5.08
2022-12-18T23:31:25.309Z,-5.08
2022-12-18T23:34:13.968Z,-4.86
2022-12-18T23:37:01.243Z,-4.93
2022-12-18T23:39:49.199Z,-4.97
2022-12-18T23:42:36.108Z,-4.79
2022-12-18T23:45:22.926Z,-4.87
2022-12-18T23:48:09.752Z,-5.07
2022-12-18T23:50:58.166Z,-5.07
2022-12-18T23:53:46.105Z,-5.17
2022-12-18T23:56:35.837Z,-5.00
2022-12-18T23:59:25.579Z,-5.07
